sensor_id;sensor_type;location;lat;lon;timestamp;temperature;humidity
22145;DHT22;11238;48.730;11.566;2022-12-19T00:01:28;-4.00;99.90
22145;DHT22;11238;48.730;11.566;2022-12-19T00:03:57;-4.00;99.90
22145;DHT22;11238;48.730;11.566;2022-12-19T00:06:24;-3.90;99.90
22145;DHT22;11238;48.730;11.566;2022-12-19T00:08:51;-3.90;99.90
22145;DHT22;11238;48.730;11.566;2022-12-19T00:11:18;-3.90;99.90
22145;DHT22;11238;48.730;11.566;2022-12-19T00:13:45;-3.90;99.90
22145;DHT22;11238;48.730;11.566;2022-12-19T00:16:13;-3.90;99.90
22145;DHT22;11238;48.730;11.566;2022-12-19T00:18:40;-3.90;99.90
22145;DHT22;11238;48.730;11.566;2022-12-19T00:21:09;-3.90;99.90
22145;DHT22;11238;48.730;11.566;2022-12-19T00:23:36;-3.90;99.90
22145;DHT22;11238;48.730;11.566;2022-12-19T00:26:11;-3.90;99.90
22145;DHT22;11238;48.730;11.566;2022-12-19T00:28:39;-3.90;99.90
22145;DHT22;11238;48.730;11.566;2022-12-19T00:31:05;-3.90;99.90
22145;DHT22;11238;48.730;11.566;2022-12-19T00:33:31;-3.90;99.90
22145;DHT22;11238;48.730;11.566;2022-12-19T00:35:58;-4.00;99.90
22145;DHT22;11238;48.730;11.566;2022-12-19T00:38:24;-4.10;99.90
22145;DHT22;11238;48.730;11.566;2022-12-19T00:40:50;-4.10;99.90
22145;DHT22;11238;48.730;11.566;2022-12-19T00:43:16;-4.10;99.90
22145;DHT22;11238;48.730;11.566;2022-12-19T00:45:41;-4.10;99.90
22145;DHT22;11238;48.730;11.566;2022-12-19T00:48:07;-4.20;99.90
22145;DHT22;11238;48.730;11.566;2022-12-19T00:50:33;-4.20;99.90
22145;DHT22;11238;48.730;11.566;2022-12-19T00:52:59;-4.20;99.90
22145;DHT22;11238;48.730;11.566;2022-12-19T00:55:25;-4.20;99.90
22145;DHT22;11238;48.730;11.566;2022-12-19T00:57:51;-4.20;99.90
22145;DHT22;11238;48.730;11.566;2022-12-19T01:00:17;-4.20;99.90
22145;DHT22;11238;48.730;11.566;2022-12-19T01:02:44;-4.20;99.90
22145;DHT22;11238;48.730;11.566;2022-12-19T01:05:10;-4.30;99.90
22145;DHT22;11238;48.730;11.566;2022-12-19T01:07:39;-4.20;99.90
22145;DHT22;11238;48.730;11.566;2022-12-19T01:10:05;-4.20;99.90
22145;DHT22;11238;48.730;11.566;2022-12-19T01:12:31;-4.20;99.90
22145;DHT22;11238;48.730;11.566;2022-12-19T01:15:15;-4.20;99.90
22145;DHT22;11238;48.730;11.566;2022-12-19T01:17:41;-4.20;99.90
22145;DHT22;11238;48.730;11.566;2022-12-19T01:20:08;-4.20;99.90
22145;DHT22;11238;48.730;11.566;2022-12-19T01:22:35;-4.20;99.90
22145;DHT22;11238;48.730;11.566;2022-12-19T01:25:01;-4.20;99.90
22145;DHT22;11238;48.730;11.566;2022-12-19T01:27:26;-4.20;99.90
22145;DHT22;11238;48.730;11.566;2022-12-19T01:29:52;-4.20;99.90
22145;DHT22;11238;48.730;11.566;2022-12-19T01:32:20;-4.20;99.90
22145;DHT22;11238;48.730;11.566;2022-12-19T01:34:46;-4.20;99.90
22145;DHT22;11238;48.730;11.566;2022-12-19T01:37:12;-4.10;99.90
22145;DHT22;11238;48.730;11.566;2022-12-19T01:39:38;-4.10;99.90
22145;DHT22;11238;48.730;11.566;2022-12-19T01:42:16;-4.10;99.90
22145;DHT22;11238;48.730;11.566;2022-12-19T01:50:49;-4.10;99.90
22145;DHT22;11238;48.730;11.566;2022-12-19T01:53:16;-4.10;99.90
22145;DHT22;11238;48.730;11.566;2022-12-19T01:55:43;-4.10;99.90
22145;DHT22;11238;48.730;11.566;2022-12-19T01:58:10;-4.10;99.90
22145;DHT22;11238;48.730;11.566;2022-12-19T02:00:41;-4.00;99.90
22145;DHT22;11238;48.730;11.566;2022-12-19T02:03:28;-4.00;99.90
22145;DHT22;11238;48.730;11.566;2022-12-19T02:05:57;-4.00;99.90
22145;DHT22;11238;48.730;11.566;2022-12-19T02:08:25;-4.00;99.90
22145;DHT22;11238;48.730;11.566;2022-12-19T02:10:52;-3.90;99.90
22145;DHT22;11238;48.730;11.566;2022-12-19T02:13:19;-3.90;99.90
22145;DHT22;11238;48.730;11.566;2022-12-19T02:18:44;-3.90;99.90
22145;DHT22;11238;48.730;11.566;2022-12-19T02:24:12;-3.90;99.90
22145;DHT22;11238;48.730;11.566;2022-12-19T02:27:05;-3.80;99.90
22145;DHT22;11238;48.730;11.566;2022-12-19T02:29:49;-3.90;99.90
22145;DHT22;11238;48.730;11.566;2022-12-19T02:34:57;-3.80;99.90
22145;DHT22;11238;48.730;11.566;2022-12-19T02:37:33;-3.80;99.90
22145;DHT22;11238;48.730;11.566;2022-12-19T02:40:25;-3.80;99.90
22145;DHT22;11238;48.730;11.566;2022-12-19T02:42:59;-3.90;99.90
22145;DHT22;11238;48.730;11.566;2022-12-19T02:45:32;-3.80;99.90
22145;DHT22;11238;48.730;11.566;2022-12-19T02:48:00;-3.90;99.90
22145;DHT22;11238;48.730;11.566;2022-12-19T02:50:35;-3.80;99.90
22145;DHT22;11238;48.730;11.566;2022-12-19T02:53:02;-3.80;99.90
22145;DHT22;11238;48.730;11.566;2022-12-19T02:55:29;-3.90;99.90
22145;DHT22;11238;48.730;11.566;2022-12-19T03:00:36;-3.80;99.90
22145;DHT22;11238;48.730;11.566;2022-12-19T03:03:29;-3.80;99.90
22145;DHT22;11238;48.730;11.566;2022-12-19T03:06:23;-3.80;99.90
22145;DHT22;11238;48.730;11.566;2022-12-19T03:09:14;-3.80;99.90
22145;DHT22;11238;48.730;11.566;2022-12-19T03:11:41;-3.80;99.90
22145;DHT22;11238;48.730;11.566;2022-12-19T03:14:14;-3.80;99.90
22145;DHT22;11238;48.730;11.566;2022-12-19T03:16:42;-3.80;99.90
22145;DHT22;11238;48.730;11.566;2022-12-19T03:19:10;-3.80;99.90
22145;DHT22;11238;48.730;11.566;2022-12-19T03:21:47;-3.80;99.90
22145;DHT22;11238;48.730;11.566;2022-12-19T03:24:14;-3.80;99.90
22145;DHT22;11238;48.730;11.566;2022-12-19T03:26:52;-3.80;99.90
22145;DHT22;11238;48.730;11.566;2022-12-19T03:29:49;-3.80;99.90
22145;DHT22;11238;48.730;11.566;2022-12-19T03:32:17;-3.80;99.90
22145;DHT22;11238;48.730;11.566;2022-12-19T03:34:49;-4.00;99.90
22145;DHT22;11238;48.730;11.566;2022-12-19T03:37:22;-4.20;99.90
22145;DHT22;11238;48.730;11.566;2022-12-19T03:39:53;-4.20;99.90
22145;DHT22;11238;48.730;11.566;2022-12-19T03:42:22;-4.10;99.90
22145;DHT22;11238;48.730;11.566;2022-12-19T03:45:10;-4.30;99.90
22145;DHT22;11238;48.730;11.566;2022-12-19T03:47:40;-4.30;99.90
22145;DHT22;11238;48.730;11.566;2022-12-19T03:50:07;-4.30;99.90
22145;DHT22;11238;48.730;11.566;2022-12-19T03:55:36;-4.10;99.90
22145;DHT22;11238;48.730;11.566;2022-12-19T03:58:07;-4.00;99.90
22145;DHT22;11238;48.730;11.566;2022-12-19T04:00:36;-4.00;99.90
22145;DHT22;11238;48.730;11.566;2022-12-19T04:03:04;-4.00;99.90
22145;DHT22;11238;48.730;11.566;2022-12-19T04:05:30;-3.90;99.90
22145;DHT22;11238;48.730;11.566;2022-12-19T04:08:03;-3.90;99.90
22145;DHT22;11238;48.730;11.566;2022-12-19T04:10:35;-3.90;99.90
22145;DHT22;11238;48.730;11.566;2022-12-19T04:13:07;-3.90;99.90
22145;DHT22;11238;48.730;11.566;2022-12-19T04:15:50;-3.80;99.90
22145;DHT22;11238;48.730;11.566;2022-12-19T04:18:18;-3.80;99.90
22145;DHT22;11238;48.730;11.566;2022-12-19T04:20:49;-3.80;99.90
22145;DHT22;11238;48.730;11.566;2022-12-19T04:23:21;-3.70;99.90
22145;DHT22;11238;48.730;11.566;2022-12-19T04:25:53;-3.70;99.90
22145;DHT22;11238;48.730;11.566;2022-12-19T04:28:53;-3.80;99.90
22145;DHT22;11238;48.730;11.566;2022-12-19T04:31:20;-3.80;99.90
22145;DHT22;11238;48.730;11.566;2022-12-19T04:33:46;-3.70;99.90
22145;DHT22;11238;48.730;11.566;2022-12-19T04:36:12;-3.80;99.90
22145;DHT22;11238;48.730;11.566;2022-12-19T04:38:38;-3.70;99.90
22145;DHT22;11238;48.730;11.566;2022-12-19T04:41:04;-3.80;99.90
22145;DHT22;11238;48.730;11.566;2022-12-19T04:43:30;-3.80;99.90
22145;DHT22;11238;48.730;11.566;2022-12-19T04:46:17;-3.70;99.90
22145;DHT22;11238;48.730;11.566;2022-12-19T04:48:43;-3.70;99.90
22145;DHT22;11238;48.730;11.566;2022-12-19T04:51:09;-3.70;99.90
22145;DHT22;11238;48.730;11.566;2022-12-19T04:53:35;-3.70;99.90
22145;DHT22;11238;48.730;11.566;2022-12-19T04:56:03;-3.60;99.90
22145;DHT22;11238;48.730;11.566;2022-12-19T04:58:29;-3.60;99.90
22145;DHT22;11238;48.730;11.566;2022-12-19T05:01:03;-3.60;99.90
22145;DHT22;11238;48.730;11.566;2022-12-19T05:03:30;-3.60;99.90
22145;DHT22;11238;48.730;11.566;2022-12-19T05:08:29;-3.60;99.90
22145;DHT22;11238;48.730;11.566;2022-12-19T05:11:00;-3.60;99.90
22145;DHT22;11238;48.730;11.566;2022-12-19T05:13:26;-3.60;99.90
22145;DHT22;11238;48.730;11.566;2022-12-19T05:16:07;-3.70;99.90
22145;DHT22;11238;48.730;11.566;2022-12-19T05:18:34;-3.70;99.90
22145;DHT22;11238;48.730;11.566;2022-12-19T05:21:00;-3.60;99.90
22145;DHT22;11238;48.730;11.566;2022-12-19T05:23:26;-3.70;99.90
22145;DHT22;11238;48.730;11.566;2022-12-19T05:25:56;-3.70;99.90
22145;DHT22;11238;48.730;11.566;2022-12-19T05:28:22;-3.70;99.90
22145;DHT22;11238;48.730;11.566;2022-12-19T05:30:48;-3.60;99.90
22145;DHT22;11238;48.730;11.566;2022-12-19T05:33:14;-3.60;99.90
22145;DHT22;11238;48.730;11.566;2022-12-19T05:35:40;-3.60;99.90
22145;DHT22;11238;48.730;11.566;2022-12-19T05:38:06;-3.50;99.90
22145;DHT22;11238;48.730;11.566;2022-12-19T05:40:32;-3.40;99.90
22145;DHT22;11238;48.730;11.566;2022-12-19T05:42:58;-3.40;99.90
22145;DHT22;11238;48.730;11.566;2022-12-19T05:45:23;-3.40;99.90
22145;DHT22;11238;48.730;11.566;2022-12-19T05:47:50;-3.30;99.90
22145;DHT22;11238;48.730;11.566;2022-12-19T05:50:16;-3.40;99.90
22145;DHT22;11238;48.730;11.566;2022-12-19T05:52:49;-3.30;99.90
22145;DHT22;11238;48.730;11.566;2022-12-19T05:55:15;-3.40;99.90
22145;DHT22;11238;48.730;11.566;2022-12-19T05:57:41;-3.40;99.90
22145;DHT22;11238;48.730;11.566;2022-12-19T06:00:08;-3.40;99.90
22145;DHT22;11238;48.730;11.566;2022-12-19T06:02:38;-3.30;99.90
22145;DHT22;11238;48.730;11.566;2022-12-19T06:05:04;-3.30;99.90
22145;DHT22;11238;48.730;11.566;2022-12-19T06:07:30;-3.30;99.90
22145;DHT22;11238;48.730;11.566;2022-12-19T06:09:57;-3.30;99.90
22145;DHT22;11238;48.730;11.566;2022-12-19T06:12:23;-3.20;99.90
22145;DHT22;11238;48.730;11.566;2022-12-19T06:14:48;-3.10;99.90
22145;DHT22;11238;48.730;11.566;2022-12-19T06:17:14;-3.10;99.90
22145;DHT22;11238;48.730;11.566;2022-12-19T06:19:40;-3.10;99.90
22145;DHT22;11238;48.730;11.566;2022-12-19T06:22:06;-3.10;99.90
22145;DHT22;11238;48.730;11.566;2022-12-19T06:24:32;-3.10;99.90
22145;DHT22;11238;48.730;11.566;2022-12-19T06:26:58;-3.10;99.90
22145;DHT22;11238;48.730;11.566;2022-12-19T06:29:24;-3.10;99.90
22145;DHT22;11238;48.730;11.566;2022-12-19T06:31:50;-3.00;99.90
22145;DHT22;11238;48.730;11.566;2022-12-19T06:34:15;-3.00;99.90
22145;DHT22;11238;48.730;11.566;2022-12-19T06:36:41;-2.90;99.90
22145;DHT22;11238;48.730;11.566;2022-12-19T06:39:11;-2.80;99.90
22145;DHT22;11238;48.730;11.566;2022-12-19T06:41:38;-2.80;99.90
22145;DHT22;11238;48.730;11.566;2022-12-19T06:44:24;-2.90;99.90
22145;DHT22;11238;48.730;11.566;2022-12-19T06:46:51;-3.00;99.90
22145;DHT22;11238;48.730;11.566;2022-12-19T06:49:17;-2.90;99.90
22145;DHT22;11238;48.730;11.566;2022-12-19T06:51:44;-2.90;99.90
22145;DHT22;11238;48.730;11.566;2022-12-19T06:54:10;-2.90;99.90
22145;DHT22;11238;48.730;11.566;2022-12-19T06:56:38;-2.90;99.90
22145;DHT22;11238;48.730;11.566;2022-12-19T06:59:04;-2.90;99.90
22145;DHT22;11238;48.730;11.566;2022-12-19T07:02:11;-2.90;99.90
22145;DHT22;11238;48.730;11.566;2022-12-19T07:04:44;-2.90;99.90
22145;DHT22;11238;48.730;11.566;2022-12-19T07:07:11;-2.80;99.90
22145;DHT22;11238;48.730;11.566;2022-12-19T07:09:36;-2.80;99.90
22145;DHT22;11238;48.730;11.566;2022-12-19T07:12:03;-2.80;99.90
22145;DHT22;11238;48.730;11.566;2022-12-19T07:14:28;-2.70;99.90
22145;DHT22;11238;48.730;11.566;2022-12-19T07:16:57;-2.70;99.90
22145;DHT22;11238;48.730;11.566;2022-12-19T07:19:24;-2.80;99.90
22145;DHT22;11238;48.730;11.566;2022-12-19T07:21:50;-2.70;99.90
22145;DHT22;11238;48.730;11.566;2022-12-19T07:24:16;-2.70;99.90
22145;DHT22;11238;48.730;11.566;2022-12-19T07:26:43;-2.70;99.90
22145;DHT22;11238;48.730;11.566;2022-12-19T07:29:10;-2.70;99.90
22145;DHT22;11238;48.730;11.566;2022-12-19T07:31:36;-2.70;99.90
22145;DHT22;11238;48.730;11.566;2022-12-19T07:34:02;-2.70;99.90
22145;DHT22;11238;48.730;11.566;2022-12-19T07:36:28;-2.70;99.90
22145;DHT22;11238;48.730;11.566;2022-12-19T07:38:53;-2.70;99.90
22145;DHT22;11238;48.730;11.566;2022-12-19T07:41:19;-2.60;99.90
22145;DHT22;11238;48.730;11.566;2022-12-19T07:43:45;-2.60;99.90
22145;DHT22;11238;48.730;11.566;2022-12-19T07:46:12;-2.60;99.90
22145;DHT22;11238;48.730;11.566;2022-12-19T07:48:38;-2.60;99.90
22145;DHT22;11238;48.730;11.566;2022-12-19T07:51:04;-2.60;99.90
22145;DHT22;11238;48.730;11.566;2022-12-19T07:53:30;-2.50;99.90
22145;DHT22;11238;48.730;11.566;2022-12-19T07:55:56;-2.50;99.90
22145;DHT22;11238;48.730;11.566;2022-12-19T07:58:22;-2.50;99.90
22145;DHT22;11238;48.730;11.566;2022-12-19T08:00:58;-2.50;99.90
22145;DHT22;11238;48.730;11.566;2022-12-19T08:03:27;-2.40;99.90
22145;DHT22;11238;48.730;11.566;2022-12-19T08:05:58;-2.40;99.90
22145;DHT22;11238;48.730;11.566;2022-12-19T08:08:25;-2.30;99.90
22145;DHT22;11238;48.730;11.566;2022-12-19T08:10:50;-2.30;99.90
22145;DHT22;11238;48.730;11.566;2022-12-19T08:13:16;-2.30;99.90
22145;DHT22;11238;48.730;11.566;2022-12-19T08:15:42;-2.20;99.90
22145;DHT22;11238;48.730;11.566;2022-12-19T08:18:08;-2.20;99.90
22145;DHT22;11238;48.730;11.566;2022-12-19T08:20:34;-2.20;99.90
22145;DHT22;11238;48.730;11.566;2022-12-19T08:22:59;-2.10;99.90
22145;DHT22;11238;48.730;11.566;2022-12-19T08:25:25;-2.10;99.90
22145;DHT22;11238;48.730;11.566;2022-12-19T08:27:51;-2.10;99.90
22145;DHT22;11238;48.730;11.566;2022-12-19T08:30:17;-2.10;99.90
22145;DHT22;11238;48.730;11.566;2022-12-19T08:32:43;-2.10;99.90
22145;DHT22;11238;48.730;11.566;2022-12-19T08:35:10;-2.10;99.90
22145;DHT22;11238;48.730;11.566;2022-12-19T08:37:36;-2.00;99.90
22145;DHT22;11238;48.730;11.566;2022-12-19T08:40:02;-2.00;99.90
22145;DHT22;11238;48.730;11.566;2022-12-19T08:42:27;-2.00;99.90
22145;DHT22;11238;48.730;11.566;2022-12-19T08:44:54;-2.00;99.90
22145;DHT22;11238;48.730;11.566;2022-12-19T08:47:19;-1.90;99.90
22145;DHT22;11238;48.730;11.566;2022-12-19T08:49:45;-1.90;99.90
22145;DHT22;11238;48.730;11.566;2022-12-19T08:52:11;-1.90;99.90
22145;DHT22;11238;48.730;11.566;2022-12-19T08:57:19;-1.80;99.90
22145;DHT22;11238;48.730;11.566;2022-12-19T08:59:45;-1.80;99.90
22145;DHT22;11238;48.730;11.566;2022-12-19T09:02:10;-1.80;99.90
22145;DHT22;11238;48.730;11.566;2022-12-19T09:04:36;-1.70;99.90
22145;DHT22;11238;48.730;11.566;2022-12-19T09:07:02;-1.70;99.90
22145;DHT22;11238;48.730;11.566;2022-12-19T09:09:28;-1.60;99.90
22145;DHT22;11238;48.730;11.566;2022-12-19T09:11:54;-1.60;99.90
22145;DHT22;11238;48.730;11.566;2022-12-19T09:14:20;-1.60;99.90
22145;DHT22;11238;48.730;11.566;2022-12-19T09:16:46;-1.50;99.90
22145;DHT22;11238;48.730;11.566;2022-12-19T09:19:12;-1.50;99.90
22145;DHT22;11238;48.730;11.566;2022-12-19T09:21:40;-1.40;99.90
22145;DHT22;11238;48.730;11.566;2022-12-19T09:24:05;-1.40;99.90
22145;DHT22;11238;48.730;11.566;2022-12-19T09:26:31;-1.40;99.90
22145;DHT22;11238;48.730;11.566;2022-12-19T09:28:57;-1.40;99.90
22145;DHT22;11238;48.730;11.566;2022-12-19T09:31:24;-1.40;99.90
22145;DHT22;11238;48.730;11.566;2022-12-19T09:33:50;-1.40;99.90
22145;DHT22;11238;48.730;11.566;2022-12-19T09:36:23;-1.40;99.90
22145;DHT22;11238;48.730;11.566;2022-12-19T09:38:52;-1.30;99.90
22145;DHT22;11238;48.730;11.566;2022-12-19T09:48:20;-1.30;99.90
22145;DHT22;11238;48.730;11.566;2022-12-19T09:50:57;-1.20;99.90
22145;DHT22;11238;48.730;11.566;2022-12-19T09:53:30;-1.10;99.90
22145;DHT22;11238;48.730;11.566;2022-12-19T09:56:05;-1.10;99.90
22145;DHT22;11238;48.730;11.566;2022-12-19T09:58:48;-1.00;99.90
22145;DHT22;11238;48.730;11.566;2022-12-19T10:01:22;-0.90;99.90
22145;DHT22;11238;48.730;11.566;2022-12-19T10:24:12;-0.50;99.90
22145;DHT22;11238;48.730;11.566;2022-12-19T11:01:16;-0.10;99.90
22145;DHT22;11238;48.730;11.566;2022-12-19T11:03:51;-0.10;99.90
22145;DHT22;11238;48.730;11.566;2022-12-19T11:09:21;0.00;99.90
22145;DHT22;11238;48.730;11.566;2022-12-19T11:11:57;0.00;99.90
22145;DHT22;11238;48.730;11.566;2022-12-19T11:18:05;0.10;99.90
22145;DHT22;11238;48.730;11.566;2022-12-19T11:20:31;0.20;99.90
22145;DHT22;11238;48.730;11.566;2022-12-19T11:22:58;0.20;99.90
22145;DHT22;11238;48.730;11.566;2022-12-19T11:25:42;0.30;99.90
22145;DHT22;11238;48.730;11.566;2022-12-19T11:33:26;0.70;99.90
22145;DHT22;11238;48.730;11.566;2022-12-19T11:35:54;0.80;99.90
22145;DHT22;11238;48.730;11.566;2022-12-19T11:38:33;0.80;99.90
22145;DHT22;11238;48.730;11.566;2022-12-19T11:43:52;0.90;99.90
22145;DHT22;11238;48.730;11.566;2022-12-19T11:49:10;0.90;99.90
22145;DHT22;11238;48.730;11.566;2022-12-19T11:52:07;0.80;99.90
22145;DHT22;11238;48.730;11.566;2022-12-19T11:54:54;0.80;99.90
22145;DHT22;11238;48.730;11.566;2022-12-19T11:57:21;0.70;99.90
22145;DHT22;11238;48.730;11.566;2022-12-19T11:59:47;0.80;99.90
22145;DHT22;11238;48.730;11.566;2022-12-19T12:05:08;0.90;99.90
22145;DHT22;11238;48.730;11.566;2022-12-19T12:07:41;0.90;99.90
22145;DHT22;11238;48.730;11.566;2022-12-19T12:10:17;1.00;99.90
22145;DHT22;11238;48.730;11.566;2022-12-19T12:15:58;1.10;99.90
22145;DHT22;11238;48.730;11.566;2022-12-19T12:23:52;1.10;99.90
22145;DHT22;11238;48.730;11.566;2022-12-19T12:26:27;1.20;99.90
22145;DHT22;11238;48.730;11.566;2022-12-19T12:29:13;1.30;99.90
22145;DHT22;11238;48.730;11.566;2022-12-19T12:52:48;1.40;99.90
22145;DHT22;11238;48.730;11.566;2022-12-19T12:55:25;1.40;99.90
22145;DHT22;11238;48.730;11.566;2022-12-19T13:38:21;1.30;99.90
22145;DHT22;11238;48.730;11.566;2022-12-19T13:46:20;1.30;99.90
22145;DHT22;11238;48.730;11.566;2022-12-19T13:48:49;1.30;99.90
22145;DHT22;11238;48.730;11.566;2022-12-19T13:51:15;1.40;99.90
22145;DHT22;11238;48.730;11.566;2022-12-19T13:53:42;1.40;99.90
22145;DHT22;11238;48.730;11.566;2022-12-19T13:56:15;1.40;99.90
22145;DHT22;11238;48.730;11.566;2022-12-19T13:58:48;1.40;99.90
22145;DHT22;11238;48.730;11.566;2022-12-19T14:01:29;1.40;99.90
22145;DHT22;11238;48.730;11.566;2022-12-19T14:04:13;1.40;99.90
22145;DHT22;11238;48.730;11.566;2022-12-19T14:06:52;1.40;99.90
22145;DHT22;11238;48.730;11.566;2022-12-19T14:09:41;1.40;99.90
22145;DHT22;11238;48.730;11.566;2022-12-19T14:12:34;1.40;99.90
22145;DHT22;11238;48.730;11.566;2022-12-19T14:15:38;1.40;99.90
22145;DHT22;11238;48.730;11.566;2022-12-19T14:18:24;1.40;99.90
22145;DHT22;11238;48.730;11.566;2022-12-19T14:21:27;1.40;99.90
22145;DHT22;11238;48.730;11.566;2022-12-19T14:24:17;1.40;99.90
22145;DHT22;11238;48.730;11.566;2022-12-19T14:26:56;1.40;99.90
22145;DHT22;11238;48.730;11.566;2022-12-19T14:29:45;1.40;99.90
22145;DHT22;11238;48.730;11.566;2022-12-19T14:32:14;1.40;99.90
22145;DHT22;11238;48.730;11.566;2022-12-19T14:34:41;1.40;99.90
22145;DHT22;11238;48.730;11.566;2022-12-19T14:37:26;1.40;99.90
22145;DHT22;11238;48.730;11.566;2022-12-19T14:39:57;1.40;99.90
22145;DHT22;11238;48.730;11.566;2022-12-19T14:42:24;1.40;99.90
22145;DHT22;11238;48.730;11.566;2022-12-19T14:47:57;1.40;99.90
22145;DHT22;11238;48.730;11.566;2022-12-19T14:50:34;1.40;99.90
22145;DHT22;11238;48.730;11.566;2022-12-19T14:53:08;1.40;99.90
22145;DHT22;11238;48.730;11.566;2022-12-19T14:55:39;1.30;99.90
22145;DHT22;11238;48.730;11.566;2022-12-19T14:58:07;1.30;99.90
22145;DHT22;11238;48.730;11.566;2022-12-19T15:00:46;1.30;99.90
22145;DHT22;11238;48.730;11.566;2022-12-19T15:03:24;1.20;99.90
22145;DHT22;11238;48.730;11.566;2022-12-19T15:05:51;1.20;99.90
22145;DHT22;11238;48.730;11.566;2022-12-19T15:08:30;1.20;99.90
22145;DHT22;11238;48.730;11.566;2022-12-19T15:10:58;1.20;99.90
22145;DHT22;11238;48.730;11.566;2022-12-19T15:13:53;1.10;99.90
22145;DHT22;11238;48.730;11.566;2022-12-19T15:16:25;1.10;99.90
22145;DHT22;11238;48.730;11.566;2022-12-19T15:18:59;1.10;99.90
22145;DHT22;11238;48.730;11.566;2022-12-19T15:21:27;1.10;99.90
22145;DHT22;11238;48.730;11.566;2022-12-19T15:23:53;1.10;99.90
22145;DHT22;11238;48.730;11.566;2022-12-19T15:30:19;1.00;99.90
22145;DHT22;11238;48.730;11.566;2022-12-19T15:33:41;1.00;99.90
22145;DHT22;11238;48.730;11.566;2022-12-19T16:07:37;0.80;99.90
22145;DHT22;11238;48.730;11.566;2022-12-19T16:17:19;0.90;99.90
22145;DHT22;11238;48.730;11.566;2022-12-19T16:23:52;0.90;99.90
22145;DHT22;11238;48.730;11.566;2022-12-19T16:26:32;0.90;99.90
22145;DHT22;11238;48.730;11.566;2022-12-19T16:28:59;0.80;99.90
22145;DHT22;11238;48.730;11.566;2022-12-19T16:37:56;0.80;99.90
22145;DHT22;11238;48.730;11.566;2022-12-19T16:40:24;0.80;99.90
22145;DHT22;11238;48.730;11.566;2022-12-19T16:43:02;0.80;99.90
22145;DHT22;11238;48.730;11.566;2022-12-19T16:45:31;0.80;99.90
22145;DHT22;11238;48.730;11.566;2022-12-19T16:47:57;0.80;99.90
22145;DHT22;11238;48.730;11.566;2022-12-19T16:50:27;0.70;99.90
22145;DHT22;11238;48.730;11.566;2022-12-19T16:52:54;0.70;99.90
22145;DHT22;11238;48.730;11.566;2022-12-19T16:55:23;0.80;99.90
22145;DHT22;11238;48.730;11.566;2022-12-19T16:57:53;0.80;99.90
22145;DHT22;11238;48.730;11.566;2022-12-19T17:00:21;0.70;99.90
22145;DHT22;11238;48.730;11.566;2022-12-19T17:02:50;0.70;99.90
22145;DHT22;11238;48.730;11.566;2022-12-19T17:05:23;0.70;99.90
22145;DHT22;11238;48.730;11.566;2022-12-19T17:07:50;0.70;99.90
22145;DHT22;11238;48.730;11.566;2022-12-19T17:10:17;0.60;99.90
22145;DHT22;11238;48.730;11.566;2022-12-19T17:12:44;0.60;99.90
22145;DHT22;11238;48.730;11.566;2022-12-19T17:15:26;0.60;99.90
22145;DHT22;11238;48.730;11.566;2022-12-19T17:18:30;0.60;99.90
22145;DHT22;11238;48.730;11.566;2022-12-19T17:21:05;0.60;99.90
22145;DHT22;11238;48.730;11.566;2022-12-19T17:37:12;0.50;99.90
22145;DHT22;11238;48.730;11.566;2022-12-19T17:39:39;0.50;99.90
22145;DHT22;11238;48.730;11.566;2022-12-19T17:42:20;0.50;99.90
22145;DHT22;11238;48.730;11.566;2022-12-19T17:44:46;0.50;99.90
22145;DHT22;11238;48.730;11.566;2022-12-19T17:47:14;0.50;99.90
22145;DHT22;11238;48.730;11.566;2022-12-19T17:49:41;0.50;99.90
22145;DHT22;11238;48.730;11.566;2022-12-19T17:52:12;0.50;99.90
22145;DHT22;11238;48.730;11.566;2022-12-19T17:54:39;0.50;99.90
22145;DHT22;11238;48.730;11.566;2022-12-19T17:57:16;0.50;99.90
22145;DHT22;11238;48.730;11.566;2022-12-19T17:59:42;0.50;99.90
22145;DHT22;11238;48.730;11.566;2022-12-19T18:02:23;0.50;99.90
22145;DHT22;11238;48.730;11.566;2022-12-19T18:04:51;0.50;99.90
22145;DHT22;11238;48.730;11.566;2022-12-19T18:07:18;0.50;99.90
22145;DHT22;11238;48.730;11.566;2022-12-19T18:09:44;0.50;99.90
22145;DHT22;11238;48.730;11.566;2022-12-19T18:12:10;0.50;99.90
22145;DHT22;11238;48.730;11.566;2022-12-19T18:14:36;0.50;99.90
22145;DHT22;11238;48.730;11.566;2022-12-19T18:17:02;0.40;99.90
22145;DHT22;11238;48.730;11.566;2022-12-19T18:23:24;0.40;99.90
22145;DHT22;11238;48.730;11.566;2022-12-19T18:25:50;0.40;99.90
22145;DHT22;11238;48.730;11.566;2022-12-19T18:28:16;0.40;99.90
22145;DHT22;11238;48.730;11.566;2022-12-19T18:30:43;0.40;99.90
22145;DHT22;11238;48.730;11.566;2022-12-19T18:43:56;0.40;99.90
22145;DHT22;11238;48.730;11.566;2022-12-19T18:46:25;0.30;99.90
22145;DHT22;11238;48.730;11.566;2022-12-19T18:48:51;0.30;99.90
22145;DHT22;11238;48.730;11.566;2022-12-19T18:51:20;0.30;99.90
22145;DHT22;11238;48.730;11.566;2022-12-19T18:53:47;0.30;99.90
22145;DHT22;11238;48.730;11.566;2022-12-19T18:56:13;0.20;99.90
22145;DHT22;11238;48.730;11.566;2022-12-19T18:58:58;0.30;99.90
22145;DHT22;11238;48.730;11.566;2022-12-19T19:01:28;0.20;99.90
22145;DHT22;11238;48.730;11.566;2022-12-19T19:03:55;0.30;99.90
22145;DHT22;11238;48.730;11.566;2022-12-19T19:06:24;0.30;99.90
22145;DHT22;11238;48.730;11.566;2022-12-19T19:08:51;0.20;99.90
22145;DHT22;11238;48.730;11.566;2022-12-19T19:11:49;0.20;99.90
22145;DHT22;11238;48.730;11.566;2022-12-19T19:20:02;0.10;99.90
22145;DHT22;11238;48.730;11.566;2022-12-19T19:22:34;0.10;99.90
22145;DHT22;11238;48.730;11.566;2022-12-19T19:28:13;0.00;99.90
22145;DHT22;11238;48.730;11.566;2022-12-19T19:30:49;0.00;99.90
22145;DHT22;11238;48.730;11.566;2022-12-19T19:33:22;-0.10;99.90
22145;DHT22;11238;48.730;11.566;2022-12-19T19:35:53;-0.10;99.90
22145;DHT22;11238;48.730;11.566;2022-12-19T19:38:22;-0.10;99.90
22145;DHT22;11238;48.730;11.566;2022-12-19T19:40:49;-0.10;99.90
22145;DHT22;11238;48.730;11.566;2022-12-19T19:43:15;-0.10;99.90
22145;DHT22;11238;48.730;11.566;2022-12-19T19:45:41;-0.20;99.90
22145;DHT22;11238;48.730;11.566;2022-12-19T19:48:07;-0.20;99.90
22145;DHT22;11238;48.730;11.566;2022-12-19T19:50:34;-0.20;99.90
22145;DHT22;11238;48.730;11.566;2022-12-19T19:53:01;-0.20;99.90
22145;DHT22;11238;48.730;11.566;2022-12-19T19:55:27;-0.30;99.90
22145;DHT22;11238;48.730;11.566;2022-12-19T19:57:53;-0.20;99.90
22145;DHT22;11238;48.730;11.566;2022-12-19T20:00:21;-0.40;99.90
22145;DHT22;11238;48.730;11.566;2022-12-19T20:02:47;-0.40;99.90
22145;DHT22;11238;48.730;11.566;2022-12-19T20:05:13;-0.40;99.90
22145;DHT22;11238;48.730;11.566;2022-12-19T20:07:39;-0.40;99.90
22145;DHT22;11238;48.730;11.566;2022-12-19T20:10:05;-0.50;99.90
22145;DHT22;11238;48.730;11.566;2022-12-19T20:12:31;-0.50;99.90
22145;DHT22;11238;48.730;11.566;2022-12-19T20:14:57;-0.40;99.90
22145;DHT22;11238;48.730;11.566;2022-12-19T20:17:23;-0.40;99.90